Time;durP1;ratioP1;P1;durP2;ratioP2;P2;SDS_P1;SDS_P2;PMS_P1;PMS_P2;Temp;Humidity;BMP_temperature;BMP_pressure;BME280_temperature;BME280_humidity;BME280_pressure;Samples;Min_cycle;Max_cycle;Signal;HPM_P1;HPM_P2
2023/04/02 18:26:01;;;;;;;17.98;5.13;;;19.40;55.00;;;;;;5030510;28;20424;-76
2023/04/02 18:28:32;;;;;;;23.20;5.55;;;19.40;55.10;;;;;;5030562;28;20030;-78
2023/04/02 18:31:02;;;;;;;18.48;6.03;;;19.50;55.40;;;;;;5027612;28;20025;-70
2023/04/02 18:33:36;;;;;;;19.73;6.28;;;19.50;55.70;;;;;;5030047;28;20491;-75
2023/04/02 18:36:05;;;;;;;17.48;6.05;;;19.50;55.90;;;;;;5030290;28;20036;-74
2023/04/02 18:38:53;;;;;;;14.57;5.82;;;19.60;56.10;;;;;;5030194;28;20040;-74
2023/04/02 18:41:23;;;;;;;17.33;5.78;;;19.70;56.20;;;;;;5030237;28;20053;-71
2023/04/02 18:44:04;;;;;;;18.45;6.28;;;19.70;56.30;;;;;;5030221;28;20034;-72
2023/04/02 18:46:41;;;;;;;14.48;5.57;;;19.80;56.20;;;;;;5014037;28;20164;-73
2023/04/02 18:49:35;;;;;;;14.48;5.47;;;19.80;56.40;;;;;;5010709;28;20038;-75
2023/04/02 18:52:08;;;;;;;12.55;5.32;;;19.80;56.10;;;;;;5007876;28;20034;-72
2023/04/02 18:54:56;;;;;;;15.80;6.10;;;19.90;56.40;;;;;;5021802;28;20076;-70
2023/04/02 18:57:38;;;;;;;13.93;5.93;;;19.90;56.50;;;;;;5029863;28;20037;-71
2023/04/02 19:00:27;;;;;;;18.88;6.35;;;19.90;56.50;;;;;;5387648;23;20061;-70
2023/04/02 19:02:53;;;;;;;12.55;5.90;;;20.00;56.30;;;;;;5029782;28;20043;-71
2023/04/02 19:05:33;;;;;;;15.27;5.93;;;20.00;56.50;;;;;;5029753;28;20471;-69
2023/04/02 19:08:07;;;;;;;13.68;5.50;;;20.10;56.50;;;;;;5038093;28;20033;-70
2023/04/02 19:10:57;;;;;;;16.67;6.20;;;20.10;56.50;;;;;;5031229;28;20026;-74
2023/04/02 19:13:23;;;;;;;13.10;5.22;;;20.20;56.50;;;;;;5102022;22;20054;-67
2023/04/02 19:16:06;;;;;;;12.95;5.30;;;20.20;56.60;;;;;;5029480;28;20092;-69
2023/04/02 19:19:09;;;;;;;11.85;4.97;;;20.30;56.60;;;;;;5029331;28;20028;-68
2023/04/02 19:22:10;;;;;;;9.30;4.65;;;20.30;56.50;;;;;;5029491;28;20439;-68
2023/04/02 19:25:13;;;;;;;11.77;4.72;;;20.40;56.50;;;;;;5029342;28;20022;-70
2023/04/02 19:27:56;;;;;;;12.90;5.35;;;20.40;56.60;;;;;;5029424;28;20080;-69
2023/04/02 19:30:44;;;;;;;12.23;4.70;;;20.40;56.60;;;;;;5029449;28;20032;-69
2023/04/02 19:33:28;;;;;;;11.05;4.90;;;20.40;56.60;;;;;;5029492;28;20034;-68
2023/04/02 19:36:14;;;;;;;11.02;4.63;;;20.50;56.60;;;;;;5001804;28;20041;-70
2023/04/02 19:39:17;;;;;;;11.80;4.68;;;20.50;56.70;;;;;;4996556;28;20018;-74
2023/04/02 19:41:47;;;;;;;13.20;4.68;;;20.50;56.70;;;;;;4996465;28;20037;-74
2023/04/02 19:44:15;;;;;;;11.70;4.65;;;20.60;56.80;;;;;;4996346;28;20487;-70
2023/04/02 19:46:41;;;;;;;12.80;4.50;;;20.60;56.80;;;;;;5002897;28;20026;-73
2023/04/02 19:49:15;;;;;;;12.07;5.15;;;20.60;56.80;;;;;;5015686;28;20104;-70
2023/04/02 19:51:44;;;;;;;12.07;4.88;;;20.60;56.50;;;;;;5015764;28;20026;-71
2023/04/02 19:54:11;;;;;;;11.32;5.05;;;20.60;56.60;;;;;;5014586;28;20480;-73
2023/04/02 19:56:37;;;;;;;13.02;5.70;;;20.60;56.50;;;;;;5015538;28;20021;-73
2023/04/02 19:59:03;;;;;;;10.60;4.95;;;20.60;56.60;;;;;;5015826;28;20026;-72
2023/04/02 20:01:29;;;;;;;13.77;5.25;;;20.50;56.50;;;;;;5008875;28;20296;-78
2023/04/02 20:03:55;;;;;;;7.95;4.43;;;20.60;56.70;;;;;;5001362;28;20392;-77
2023/04/02 20:06:21;;;;;;;13.98;5.30;;;20.60;56.70;;;;;;5006214;28;20041;-73
2023/04/02 20:08:46;;;;;;;8.30;4.65;;;20.50;56.70;;;;;;4999219;28;20041;-73
2023/04/02 20:11:13;;;;;;;11.63;4.65;;;20.50;56.80;;;;;;4999568;28;20029;-74
2023/04/02 20:13:39;;;;;;;10.80;4.78;;;20.50;56.90;;;;;;5005567;28;20046;-74
2023/04/02 20:16:06;;;;;;;9.73;4.93;;;20.50;57.00;;;;;;5000461;28;20053;-74
2023/04/02 20:18:32;;;;;;;8.10;4.93;;;20.50;57.00;;;;;;5002145;28;20077;-76
2023/04/02 20:21:03;;;;;;;9.85;4.75;;;20.60;57.10;;;;;;5006049;28;20030;-77
2023/04/02 20:23:29;;;;;;;10.30;4.70;;;20.50;57.10;;;;;;5000266;28;20093;-77
2023/04/02 20:25:56;;;;;;;10.30;5.07;;;20.50;57.10;;;;;;5003054;28;20069;-76
2023/04/02 20:28:24;;;;;;;8.57;4.45;;;20.60;57.20;;;;;;5000143;28;20065;-75
2023/04/02 20:30:50;;;;;;;12.02;4.85;;;20.60;57.20;;;;;;5000391;28;20085;-76
2023/04/02 20:33:21;;;;;;;10.40;5.15;;;20.60;57.20;;;;;;5005190;28;20033;-76
2023/04/02 20:35:48;;;;;;;9.52;4.70;;;20.60;57.20;;;;;;4998621;28;20014;-80
2023/04/02 20:38:14;;;;;;;7.35;4.57;;;20.60;57.20;;;;;;4998557;28;20041;-81
2023/04/02 20:40:41;;;;;;;10.07;4.90;;;20.60;57.20;;;;;;5007167;28;20045;-80
2023/04/02 20:43:09;;;;;;;10.60;4.88;;;20.70;57.20;;;;;;4997438;28;20034;-74
2023/04/02 20:45:36;;;;;;;7.80;4.20;;;20.70;57.10;;;;;;4998100;28;20058;-75
2023/04/02 20:48:02;;;;;;;10.20;4.90;;;20.60;57.20;;;;;;5000942;28;20034;-76
2023/04/02 20:50:28;;;;;;;7.45;3.70;;;20.60;57.20;;;;;;5005765;28;20117;-74
2023/04/02 20:52:54;;;;;;;7.15;4.18;;;20.70;57.30;;;;;;5001521;28;20109;-75
2023/04/02 20:55:20;;;;;;;8.50;4.65;;;20.70;57.30;;;;;;5001106;28;20026;-74
2023/04/02 20:57:46;;;;;;;10.20;3.92;;;20.70;57.40;;;;;;5006044;28;20032;-74
2023/04/02 21:00:12;;;;;;;7.35;3.92;;;20.70;57.40;;;;;;5003114;28;20026;-74
2023/04/02 21:02:38;;;;;;;10.00;4.15;;;20.70;57.40;;;;;;5003701;28;20030;-74
2023/04/02 21:05:04;;;;;;;8.05;4.03;;;20.80;57.50;;;;;;5003307;28;20428;-74
2023/04/02 21:07:31;;;;;;;6.90;3.95;;;20.80;57.50;;;;;;4999865;28;20039;-74
2023/04/02 21:09:57;;;;;;;7.53;3.60;;;20.80;57.50;;;;;;5006505;28;20380;-74
2023/04/02 21:12:23;;;;;;;6.88;3.63;;;20.80;57.50;;;;;;5003243;28;20041;-73
2023/04/02 21:14:55;;;;;;;7.60;3.60;;;20.80;57.50;;;;;;5002031;28;20027;-72
2023/04/02 21:17:21;;;;;;;7.05;4.07;;;20.80;57.70;;;;;;5005948;28;21308;-72
2023/04/02 21:19:47;;;;;;;8.52;4.03;;;20.90;57.40;;;;;;5005178;28;20026;-73
2023/04/02 21:22:14;;;;;;;9.40;4.47;;;20.90;57.30;;;;;;5006214;28;20056;-73
2023/04/02 21:24:39;;;;;;;7.30;3.83;;;20.90;57.30;;;;;;5006806;28;20033;-73
2023/04/02 21:27:06;;;;;;;7.93;4.10;;;20.90;57.30;;;;;;5004482;28;20034;-73
2023/04/02 21:29:32;;;;;;;8.07;4.47;;;20.90;57.30;;;;;;5000846;28;20027;-73
2023/04/02 21:31:58;;;;;;;8.68;4.03;;;20.90;57.30;;;;;;5004891;28;20541;-73
2023/04/02 21:34:24;;;;;;;8.82;3.72;;;20.90;57.30;;;;;;5005883;28;21431;-75
2023/04/02 21:36:50;;;;;;;6.60;3.80;;;20.90;57.40;;;;;;5003949;28;20073;-73
2023/04/02 21:39:21;;;;;;;6.18;4.00;;;20.90;57.40;;;;;;5002068;28;20109;-75
2023/04/02 21:41:49;;;;;;;7.68;3.65;;;20.90;57.40;;;;;;5013396;28;20032;-75
2023/04/02 21:44:17;;;;;;;7.30;4.22;;;20.90;57.40;;;;;;5012238;28;20030;-74
2023/04/02 21:46:44;;;;;;;6.85;3.75;;;20.90;57.50;;;;;;5013488;28;20018;-75
2023/04/02 21:49:11;;;;;;;6.18;4.00;;;20.90;57.40;;;;;;5013401;28;20041;-74
2023/04/02 21:51:39;;;;;;;7.18;4.28;;;20.90;57.50;;;;;;5013497;28;20029;-75
2023/04/02 21:54:06;;;;;;;8.07;3.97;;;20.90;57.40;;;;;;5013491;28;20018;-74
2023/04/02 21:56:35;;;;;;;5.80;3.75;;;20.90;57.40;;;;;;5013045;28;20018;-74
2023/04/02 21:59:02;;;;;;;6.50;3.80;;;20.90;57.40;;;;;;5013197;28;20474;-75
2023/04/02 22:01:34;;;;;;;7.45;4.13;;;20.90;57.40;;;;;;5013135;28;20029;-75
2023/04/02 22:04:02;;;;;;;8.07;4.00;;;20.90;57.40;;;;;;5013542;28;20088;-74
2023/04/02 22:06:30;;;;;;;6.25;3.92;;;20.90;57.40;;;;;;5011093;28;20034;-75
2023/04/02 22:09:01;;;;;;;8.30;4.03;;;20.90;57.40;;;;;;5013393;28;20034;-74
2023/04/02 22:11:30;;;;;;;6.13;3.95;;;20.90;57.40;;;;;;5012802;28;20514;-74
2023/04/02 22:13:57;;;;;;;7.03;4.60;;;20.90;57.40;;;;;;5012988;28;20030;-74
2023/04/02 22:16:26;;;;;;;6.38;4.28;;;20.90;57.40;;;;;;5012523;28;20133;-74
2023/04/02 22:18:56;;;;;;;7.05;4.25;;;20.90;57.40;;;;;;5012901;28;20022;-74
2023/04/02 22:21:23;;;;;;;8.35;4.10;;;20.90;57.40;;;;;;5013016;28;20037;-74
2023/04/02 22:23:48;;;;;;;8.18;4.10;;;20.90;57.30;;;;;;5013435;28;20037;-74
2023/04/02 22:26:15;;;;;;;6.72;3.95;;;20.80;57.30;;;;;;5013222;28;20118;-74
2023/04/02 22:28:42;;;;;;;6.88;3.90;;;20.90;57.20;;;;;;5013103;28;20030;-74
2023/04/02 22:31:11;;;;;;;5.80;3.85;;;20.90;57.20;;;;;;5007638;28;20033;-74
2023/04/02 22:33:39;;;;;;;6.90;4.05;;;20.90;57.10;;;;;;5011152;28;20044;-74
2023/04/02 22:36:06;;;;;;;6.32;4.05;;;20.90;57.10;;;;;;5010010;28;20434;-76
2023/04/02 22:38:33;;;;;;;6.20;3.95;;;20.90;57.10;;;;;;5011573;28;20018;-74
2023/04/02 22:41:06;;;;;;;6.18;3.67;;;20.90;57.00;;;;;;5012969;28;20022;-74
2023/04/02 22:43:33;;;;;;;8.07;4.13;;;20.90;57.10;;;;;;5010218;28;20029;-74
2023/04/02 22:45:59;;;;;;;6.88;4.00;;;20.90;57.10;;;;;;5013008;28;20083;-74
2023/04/02 22:48:25;;;;;;;9.10;4.50;;;20.90;57.00;;;;;;5012965;28;20034;-74
2023/04/02 22:50:52;;;;;;;5.05;3.80;;;20.80;56.90;;;;;;5014980;28;20236;-74
2023/04/02 22:53:19;;;;;;;5.93;4.00;;;20.90;56.90;;;;;;5018962;28;20025;-73
2023/04/02 22:55:45;;;;;;;6.38;4.18;;;20.90;56.90;;;;;;5032709;28;20021;-73
2023/04/02 22:58:11;;;;;;;6.50;4.00;;;20.80;56.80;;;;;;5032693;28;20028;-73
2023/04/02 23:00:38;;;;;;;6.60;4.35;;;20.80;56.80;;;;;;5017072;28;20022;-73
2023/04/02 23:03:05;;;;;;;7.25;4.40;;;20.80;56.70;;;;;;5012762;28;20032;-73
2023/04/02 23:05:31;;;;;;;8.15;4.53;;;20.80;56.70;;;;;;5012714;28;20116;-73
2023/04/02 23:07:57;;;;;;;7.75;4.20;;;20.80;56.70;;;;;;5013200;28;20033;-73
2023/04/02 23:10:23;;;;;;;6.35;4.00;;;20.80;56.70;;;;;;5013354;28;20022;-73
2023/04/02 23:12:50;;;;;;;6.45;4.13;;;20.80;56.70;;;;;;5016479;28;20049;-73
2023/04/02 23:15:15;;;;;;;7.40;4.35;;;20.80;56.70;;;;;;5016489;28;20036;-73
2023/04/02 23:17:42;;;;;;;6.30;4.40;;;20.80;56.60;;;;;;5015122;28;20037;-73
2023/04/02 23:20:10;;;;;;;6.75;4.15;;;20.80;56.60;;;;;;5016300;28;20476;-73
2023/04/02 23:22:37;;;;;;;7.15;4.30;;;20.80;56.60;;;;;;5016088;28;20392;-72
2023/04/02 23:25:06;;;;;;;6.25;4.43;;;20.80;56.70;;;;;;5016358;28;20057;-72
2023/04/02 23:27:32;;;;;;;5.20;3.72;;;20.80;56.70;;;;;;5016233;28;20029;-72
2023/04/02 23:29:58;;;;;;;6.80;4.20;;;20.80;56.70;;;;;;5016146;28;20160;-72
2023/04/02 23:32:24;;;;;;;6.32;4.13;;;20.80;56.70;;;;;;5016230;28;20018;-72
2023/04/02 23:34:51;;;;;;;8.75;4.20;;;20.80;56.70;;;;;;5016008;28;20097;-72
2023/04/02 23:37:18;;;;;;;7.18;4.80;;;20.80;56.70;;;;;;5016430;28;20045;-72
2023/04/02 23:39:44;;;;;;;7.55;4.25;;;20.80;56.60;;;;;;5016099;28;20067;-72
2023/04/02 23:42:10;;;;;;;7.35;4.50;;;20.80;56.60;;;;;;5015853;28;20025;-73
2023/04/02 23:44:36;;;;;;;7.35;4.57;;;20.80;56.60;;;;;;5016034;28;20475;-72
2023/04/02 23:47:03;;;;;;;6.88;4.22;;;20.80;56.50;;;;;;5015870;28;20137;-73
2023/04/02 23:49:29;;;;;;;6.82;4.45;;;20.80;56.50;;;;;;5014839;28;20034;-73
2023/04/02 23:51:55;;;;;;;6.65;4.70;;;20.80;56.40;;;;;;5014945;28;20026;-73
2023/04/02 23:54:21;;;;;;;6.47;4.20;;;20.80;56.40;;;;;;5015736;28;20022;-73
2023/04/02 23:56:47;;;;;;;6.15;4.40;;;20.80;56.40;;;;;;5015608;28;20694;-72
2023/04/02 23:59:14;;;;;;;6.70;4.40;;;20.80;56.30;;;;;;5015687;28;20109;-73
